sensor_id;sensor_type;location;lat;lon;timestamp;P1;durP1;ratioP1;P2;durP2;ratioP2
49460;SDS011;35355;49.198;-0.368;2022-09-01T00:01:11;7.68;;;0.90;;
49460;SDS011;35355;49.198;-0.368;2022-09-01T00:03:51;6.18;;;1.42;;
49460;SDS011;35355;49.198;-0.368;2022-09-01T00:06:18;9.25;;;1.27;;
49460;SDS011;35355;49.198;-0.368;2022-09-01T00:08:51;6.97;;;1.08;;
49460;SDS011;35355;49.198;-0.368;2022-09-01T00:11:17;13.32;;;1.25;;
49460;SDS011;35355;49.198;-0.368;2022-09-01T00:13:43;12.07;;;1.25;;
49460;SDS011;35355;49.198;-0.368;2022-09-01T00:16:09;8.30;;;1.20;;
49460;SDS011;35355;49.198;-0.368;2022-09-01T00:18:36;6.15;;;1.08;;
49460;SDS011;35355;49.198;-0.368;2022-09-01T00:21:01;10.40;;;0.82;;
49460;SDS011;35355;49.198;-0.368;2022-09-01T00:23:27;11.70;;;1.48;;
49460;SDS011;35355;49.198;-0.368;2022-09-01T00:25:53;6.18;;;1.08;;
49460;SDS011;35355;49.198;-0.368;2022-09-01T00:28:19;6.03;;;1.00;;
49460;SDS011;35355;49.198;-0.368;2022-09-01T00:30:45;6.13;;;1.20;;
49460;SDS011;35355;49.198;-0.368;2022-09-01T00:33:10;5.45;;;0.75;;
49460;SDS011;35355;49.198;-0.368;2022-09-01T00:35:35;9.82;;;0.93;;
49460;SDS011;35355;49.198;-0.368;2022-09-01T00:38:01;13.32;;;1.60;;
49460;SDS011;35355;49.198;-0.368;2022-09-01T00:40:26;8.45;;;1.38;;
49460;SDS011;35355;49.198;-0.368;2022-09-01T00:42:52;12.60;;;2.47;;
49460;SDS011;35355;49.198;-0.368;2022-09-01T00:45:18;9.63;;;1.33;;
49460;SDS011;35355;49.198;-0.368;2022-09-01T00:47:45;12.95;;;1.15;;
49460;SDS011;35355;49.198;-0.368;2022-09-01T00:50:11;8.50;;;1.45;;
49460;SDS011;35355;49.198;-0.368;2022-09-01T00:52:40;10.77;;;2.15;;
49460;SDS011;35355;49.198;-0.368;2022-09-01T00:55:11;8.73;;;1.52;;
49460;SDS011;35355;49.198;-0.368;2022-09-01T00:57:39;16.58;;;3.63;;
49460;SDS011;35355;49.198;-0.368;2022-09-01T01:00:08;4.55;;;1.13;;
49460;SDS011;35355;49.198;-0.368;2022-09-01T01:02:38;6.15;;;1.63;;
49460;SDS011;35355;49.198;-0.368;2022-09-01T01:05:05;9.27;;;1.33;;
49460;SDS011;35355;49.198;-0.368;2022-09-01T01:07:31;9.50;;;1.17;;
49460;SDS011;35355;49.198;-0.368;2022-09-01T01:10:02;9.32;;;1.38;;
49460;SDS011;35355;49.198;-0.368;2022-09-01T01:12:30;7.95;;;1.90;;
49460;SDS011;35355;49.198;-0.368;2022-09-01T01:14:57;9.60;;;1.45;;
49460;SDS011;35355;49.198;-0.368;2022-09-01T01:17:22;8.80;;;1.50;;
49460;SDS011;35355;49.198;-0.368;2022-09-01T01:19:49;4.82;;;1.00;;
49460;SDS011;35355;49.198;-0.368;2022-09-01T01:25:48;6.68;;;0.73;;
49460;SDS011;35355;49.198;-0.368;2022-09-01T01:28:24;8.52;;;1.25;;
49460;SDS011;35355;49.198;-0.368;2022-09-01T01:30:54;13.75;;;1.83;;
49460;SDS011;35355;49.198;-0.368;2022-09-01T01:33:26;7.60;;;1.75;;
49460;SDS011;35355;49.198;-0.368;2022-09-01T01:35:56;8.18;;;1.25;;
49460;SDS011;35355;49.198;-0.368;2022-09-01T01:38:24;6.03;;;0.93;;
49460;SDS011;35355;49.198;-0.368;2022-09-01T01:40:51;9.93;;;1.35;;
49460;SDS011;35355;49.198;-0.368;2022-09-01T01:43:17;10.23;;;1.15;;
49460;SDS011;35355;49.198;-0.368;2022-09-01T01:45:47;7.03;;;1.02;;
49460;SDS011;35355;49.198;-0.368;2022-09-01T01:48:16;8.90;;;1.98;;
49460;SDS011;35355;49.198;-0.368;2022-09-01T01:50:48;5.85;;;1.27;;
49460;SDS011;35355;49.198;-0.368;2022-09-01T01:53:18;11.50;;;1.10;;
49460;SDS011;35355;49.198;-0.368;2022-09-01T01:55:45;4.63;;;1.33;;
49460;SDS011;35355;49.198;-0.368;2022-09-01T01:58:15;12.52;;;1.50;;
49460;SDS011;35355;49.198;-0.368;2022-09-01T02:00:44;9.77;;;1.85;;
49460;SDS011;35355;49.198;-0.368;2022-09-01T02:03:12;8.48;;;1.20;;
49460;SDS011;35355;49.198;-0.368;2022-09-01T02:05:43;7.63;;;1.48;;
49460;SDS011;35355;49.198;-0.368;2022-09-01T02:08:11;10.60;;;2.47;;
49460;SDS011;35355;49.198;-0.368;2022-09-01T02:10:41;7.55;;;1.58;;
49460;SDS011;35355;49.198;-0.368;2022-09-01T02:13:09;8.00;;;1.50;;
49460;SDS011;35355;49.198;-0.368;2022-09-01T02:15:40;7.53;;;1.48;;
49460;SDS011;35355;49.198;-0.368;2022-09-01T02:18:14;7.95;;;1.67;;
49460;SDS011;35355;49.198;-0.368;2022-09-01T02:20:43;16.45;;;1.42;;
49460;SDS011;35355;49.198;-0.368;2022-09-01T02:23:09;7.15;;;1.35;;
49460;SDS011;35355;49.198;-0.368;2022-09-01T02:25:39;12.55;;;1.52;;
49460;SDS011;35355;49.198;-0.368;2022-09-01T02:28:09;10.80;;;1.60;;
49460;SDS011;35355;49.198;-0.368;2022-09-01T02:30:46;5.70;;;1.10;;
49460;SDS011;35355;49.198;-0.368;2022-09-01T02:33:13;7.18;;;1.52;;
49460;SDS011;35355;49.198;-0.368;2022-09-01T02:35:43;4.82;;;1.10;;
49460;SDS011;35355;49.198;-0.368;2022-09-01T02:38:09;4.30;;;1.13;;
49460;SDS011;35355;49.198;-0.368;2022-09-01T02:40:37;5.57;;;1.00;;
49460;SDS011;35355;49.198;-0.368;2022-09-01T02:43:05;7.80;;;1.35;;
49460;SDS011;35355;49.198;-0.368;2022-09-01T02:45:30;7.32;;;1.60;;
49460;SDS011;35355;49.198;-0.368;2022-09-01T02:47:56;8.38;;;1.45;;
49460;SDS011;35355;49.198;-0.368;2022-09-01T02:50:22;9.00;;;1.83;;
49460;SDS011;35355;49.198;-0.368;2022-09-01T02:52:49;8.90;;;1.55;;
49460;SDS011;35355;49.198;-0.368;2022-09-01T02:55:16;8.80;;;1.60;;
49460;SDS011;35355;49.198;-0.368;2022-09-01T02:57:46;14.38;;;2.38;;
49460;SDS011;35355;49.198;-0.368;2022-09-01T03:00:16;7.18;;;1.55;;
49460;SDS011;35355;49.198;-0.368;2022-09-01T03:02:50;4.78;;;1.20;;
49460;SDS011;35355;49.198;-0.368;2022-09-01T03:05:17;6.82;;;1.42;;
49460;SDS011;35355;49.198;-0.368;2022-09-01T03:07:49;5.72;;;1.55;;
49460;SDS011;35355;49.198;-0.368;2022-09-01T03:10:20;8.95;;;1.65;;
49460;SDS011;35355;49.198;-0.368;2022-09-01T03:12:48;8.57;;;1.70;;
49460;SDS011;35355;49.198;-0.368;2022-09-01T03:15:13;3.95;;;1.20;;
49460;SDS011;35355;49.198;-0.368;2022-09-01T03:17:39;5.68;;;1.08;;
49460;SDS011;35355;49.198;-0.368;2022-09-01T03:20:06;7.38;;;1.52;;
49460;SDS011;35355;49.198;-0.368;2022-09-01T03:22:31;6.20;;;1.27;;
49460;SDS011;35355;49.198;-0.368;2022-09-01T03:24:57;4.93;;;1.02;;
49460;SDS011;35355;49.198;-0.368;2022-09-01T03:27:23;4.65;;;1.00;;
49460;SDS011;35355;49.198;-0.368;2022-09-01T03:29:49;7.55;;;1.25;;
49460;SDS011;35355;49.198;-0.368;2022-09-01T03:32:14;6.82;;;1.88;;
49460;SDS011;35355;49.198;-0.368;2022-09-01T03:34:39;7.57;;;1.48;;
49460;SDS011;35355;49.198;-0.368;2022-09-01T03:37:05;5.28;;;1.20;;
49460;SDS011;35355;49.198;-0.368;2022-09-01T03:39:31;3.45;;;1.02;;
49460;SDS011;35355;49.198;-0.368;2022-09-01T03:41:58;7.05;;;1.25;;
49460;SDS011;35355;49.198;-0.368;2022-09-01T03:44:25;7.80;;;1.45;;
49460;SDS011;35355;49.198;-0.368;2022-09-01T03:46:50;9.52;;;1.45;;
49460;SDS011;35355;49.198;-0.368;2022-09-01T03:49:17;10.35;;;1.33;;
49460;SDS011;35355;49.198;-0.368;2022-09-01T03:51:51;5.13;;;1.45;;
49460;SDS011;35355;49.198;-0.368;2022-09-01T03:54:18;7.88;;;1.52;;
49460;SDS011;35355;49.198;-0.368;2022-09-01T03:56:44;8.05;;;1.83;;
49460;SDS011;35355;49.198;-0.368;2022-09-01T03:59:09;6.95;;;1.92;;
49460;SDS011;35355;49.198;-0.368;2022-09-01T04:01:41;11.68;;;2.15;;
49460;SDS011;35355;49.198;-0.368;2022-09-01T04:04:08;10.70;;;1.40;;
49460;SDS011;35355;49.198;-0.368;2022-09-01T04:06:38;9.65;;;1.95;;
49460;SDS011;35355;49.198;-0.368;2022-09-01T04:09:04;3.88;;;1.30;;
49460;SDS011;35355;49.198;-0.368;2022-09-01T04:11:29;7.10;;;2.10;;
49460;SDS011;35355;49.198;-0.368;2022-09-01T04:13:56;6.57;;;1.40;;
49460;SDS011;35355;49.198;-0.368;2022-09-01T04:16:26;4.97;;;1.30;;
49460;SDS011;35355;49.198;-0.368;2022-09-01T04:19:16;7.38;;;1.60;;
49460;SDS011;35355;49.198;-0.368;2022-09-01T04:21:50;13.02;;;1.40;;
49460;SDS011;35355;49.198;-0.368;2022-09-01T04:24:18;7.60;;;1.63;;
49460;SDS011;35355;49.198;-0.368;2022-09-01T04:26:44;7.00;;;1.63;;
49460;SDS011;35355;49.198;-0.368;2022-09-01T04:29:11;7.88;;;1.60;;
49460;SDS011;35355;49.198;-0.368;2022-09-01T04:31:36;7.40;;;2.08;;
49460;SDS011;35355;49.198;-0.368;2022-09-01T04:34:04;2.83;;;1.30;;
49460;SDS011;35355;49.198;-0.368;2022-09-01T04:36:37;7.30;;;1.70;;
49460;SDS011;35355;49.198;-0.368;2022-09-01T04:39:05;9.25;;;2.50;;
49460;SDS011;35355;49.198;-0.368;2022-09-01T04:41:34;8.95;;;3.08;;
49460;SDS011;35355;49.198;-0.368;2022-09-01T04:44:01;10.98;;;1.80;;
49460;SDS011;35355;49.198;-0.368;2022-09-01T04:46:29;9.07;;;1.80;;
49460;SDS011;35355;49.198;-0.368;2022-09-01T04:48:57;7.03;;;1.75;;
49460;SDS011;35355;49.198;-0.368;2022-09-01T04:51:24;8.90;;;1.65;;
49460;SDS011;35355;49.198;-0.368;2022-09-01T04:53:52;4.97;;;1.40;;
49460;SDS011;35355;49.198;-0.368;2022-09-01T04:56:22;6.85;;;2.13;;
49460;SDS011;35355;49.198;-0.368;2022-09-01T04:58:49;9.77;;;1.83;;
49460;SDS011;35355;49.198;-0.368;2022-09-01T05:01:17;7.15;;;1.83;;
49460;SDS011;35355;49.198;-0.368;2022-09-01T05:03:44;6.03;;;1.90;;
49460;SDS011;35355;49.198;-0.368;2022-09-01T05:06:16;6.38;;;1.67;;
49460;SDS011;35355;49.198;-0.368;2022-09-01T05:08:43;10.27;;;2.00;;
49460;SDS011;35355;49.198;-0.368;2022-09-01T05:11:12;9.60;;;1.95;;
49460;SDS011;35355;49.198;-0.368;2022-09-01T05:13:45;10.40;;;1.67;;
49460;SDS011;35355;49.198;-0.368;2022-09-01T05:16:13;7.97;;;2.47;;
49460;SDS011;35355;49.198;-0.368;2022-09-01T05:18:41;11.50;;;2.20;;
49460;SDS011;35355;49.198;-0.368;2022-09-01T05:41:34;4.60;;;1.30;;
49460;SDS011;35355;49.198;-0.368;2022-09-01T05:44:00;15.75;;;2.22;;
49460;SDS011;35355;49.198;-0.368;2022-09-01T05:46:27;8.77;;;1.67;;
49460;SDS011;35355;49.198;-0.368;2022-09-01T05:48:54;4.95;;;2.10;;
49460;SDS011;35355;49.198;-0.368;2022-09-01T05:51:21;10.25;;;2.28;;
49460;SDS011;35355;49.198;-0.368;2022-09-01T05:53:51;8.50;;;3.10;;
49460;SDS011;35355;49.198;-0.368;2022-09-01T05:56:23;9.75;;;2.53;;
49460;SDS011;35355;49.198;-0.368;2022-09-01T05:58:50;9.25;;;3.20;;
49460;SDS011;35355;49.198;-0.368;2022-09-01T06:01:17;12.32;;;2.80;;
49460;SDS011;35355;49.198;-0.368;2022-09-01T06:03:55;6.68;;;2.72;;
49460;SDS011;35355;49.198;-0.368;2022-09-01T06:06:28;10.70;;;2.55;;
49460;SDS011;35355;49.198;-0.368;2022-09-01T06:09:02;10.75;;;2.35;;
49460;SDS011;35355;49.198;-0.368;2022-09-01T06:11:28;10.35;;;3.15;;
49460;SDS011;35355;49.198;-0.368;2022-09-01T06:13:55;4.60;;;1.88;;
49460;SDS011;35355;49.198;-0.368;2022-09-01T06:16:23;7.72;;;1.90;;
49460;SDS011;35355;49.198;-0.368;2022-09-01T06:18:49;10.27;;;1.95;;
49460;SDS011;35355;49.198;-0.368;2022-09-01T06:21:17;6.95;;;1.95;;
49460;SDS011;35355;49.198;-0.368;2022-09-01T06:23:43;11.90;;;1.98;;
49460;SDS011;35355;49.198;-0.368;2022-09-01T06:29:04;7.07;;;1.85;;
49460;SDS011;35355;49.198;-0.368;2022-09-01T06:31:32;9.65;;;1.80;;
49460;SDS011;35355;49.198;-0.368;2022-09-01T06:34:02;10.77;;;2.28;;
49460;SDS011;35355;49.198;-0.368;2022-09-01T06:36:29;8.32;;;1.70;;
49460;SDS011;35355;49.198;-0.368;2022-09-01T06:38:56;11.25;;;2.20;;
49460;SDS011;35355;49.198;-0.368;2022-09-01T06:41:25;8.88;;;2.60;;
49460;SDS011;35355;49.198;-0.368;2022-09-01T06:43:51;16.50;;;2.78;;
49460;SDS011;35355;49.198;-0.368;2022-09-01T06:46:18;9.32;;;2.80;;
49460;SDS011;35355;49.198;-0.368;2022-09-01T06:48:45;14.43;;;2.88;;
49460;SDS011;35355;49.198;-0.368;2022-09-01T06:51:12;10.52;;;2.28;;
49460;SDS011;35355;49.198;-0.368;2022-09-01T06:53:38;9.63;;;2.35;;
49460;SDS011;35355;49.198;-0.368;2022-09-01T06:56:05;12.93;;;2.80;;
49460;SDS011;35355;49.198;-0.368;2022-09-01T06:58:31;12.75;;;3.33;;
49460;SDS011;35355;49.198;-0.368;2022-09-01T07:00:57;24.17;;;4.15;;
49460;SDS011;35355;49.198;-0.368;2022-09-01T07:03:22;10.43;;;2.25;;
49460;SDS011;35355;49.198;-0.368;2022-09-01T07:05:49;11.30;;;1.92;;
49460;SDS011;35355;49.198;-0.368;2022-09-01T07:08:16;10.75;;;2.03;;
49460;SDS011;35355;49.198;-0.368;2022-09-01T07:10:47;30.73;;;4.18;;
49460;SDS011;35355;49.198;-0.368;2022-09-01T07:13:15;9.15;;;2.10;;
49460;SDS011;35355;49.198;-0.368;2022-09-01T07:15:49;9.25;;;1.52;;
49460;SDS011;35355;49.198;-0.368;2022-09-01T07:18:21;19.27;;;2.75;;
49460;SDS011;35355;49.198;-0.368;2022-09-01T07:20:49;13.52;;;2.60;;
49460;SDS011;35355;49.198;-0.368;2022-09-01T07:23:17;12.20;;;2.05;;
49460;SDS011;35355;49.198;-0.368;2022-09-01T07:25:45;16.67;;;2.08;;
49460;SDS011;35355;49.198;-0.368;2022-09-01T07:28:12;9.13;;;2.08;;
49460;SDS011;35355;49.198;-0.368;2022-09-01T07:30:43;10.07;;;2.60;;
49460;SDS011;35355;49.198;-0.368;2022-09-01T07:33:15;14.40;;;2.92;;
49460;SDS011;35355;49.198;-0.368;2022-09-01T07:35:44;12.27;;;3.42;;
49460;SDS011;35355;49.198;-0.368;2022-09-01T07:38:10;31.13;;;4.40;;
49460;SDS011;35355;49.198;-0.368;2022-09-01T07:40:38;14.07;;;4.70;;
49460;SDS011;35355;49.198;-0.368;2022-09-01T07:43:08;17.88;;;3.63;;
49460;SDS011;35355;49.198;-0.368;2022-09-01T07:45:42;15.73;;;2.60;;
49460;SDS011;35355;49.198;-0.368;2022-09-01T07:48:11;22.58;;;3.30;;
49460;SDS011;35355;49.198;-0.368;2022-09-01T07:50:40;16.13;;;3.40;;
49460;SDS011;35355;49.198;-0.368;2022-09-01T07:53:11;11.43;;;2.13;;
49460;SDS011;35355;49.198;-0.368;2022-09-01T07:55:39;10.88;;;2.60;;
49460;SDS011;35355;49.198;-0.368;2022-09-01T07:58:08;12.73;;;3.00;;
49460;SDS011;35355;49.198;-0.368;2022-09-01T08:00:33;13.48;;;3.33;;
49460;SDS011;35355;49.198;-0.368;2022-09-01T08:02:59;15.35;;;3.83;;
49460;SDS011;35355;49.198;-0.368;2022-09-01T08:05:25;11.73;;;3.38;;
49460;SDS011;35355;49.198;-0.368;2022-09-01T08:07:52;7.75;;;3.45;;
49460;SDS011;35355;49.198;-0.368;2022-09-01T08:10:18;19.23;;;4.30;;
49460;SDS011;35355;49.198;-0.368;2022-09-01T08:12:44;19.85;;;4.43;;
49460;SDS011;35355;49.198;-0.368;2022-09-01T08:15:09;13.55;;;4.55;;
49460;SDS011;35355;49.198;-0.368;2022-09-01T08:17:36;12.77;;;3.85;;
49460;SDS011;35355;49.198;-0.368;2022-09-01T08:20:03;13.40;;;4.57;;
49460;SDS011;35355;49.198;-0.368;2022-09-01T08:22:33;15.65;;;3.92;;
49460;SDS011;35355;49.198;-0.368;2022-09-01T08:25:01;17.02;;;4.13;;
49460;SDS011;35355;49.198;-0.368;2022-09-01T08:27:34;24.25;;;4.55;;
49460;SDS011;35355;49.198;-0.368;2022-09-01T08:30:04;15.02;;;4.45;;
49460;SDS011;35355;49.198;-0.368;2022-09-01T08:32:31;10.05;;;2.72;;
49460;SDS011;35355;49.198;-0.368;2022-09-01T08:34:57;20.90;;;4.40;;
49460;SDS011;35355;49.198;-0.368;2022-09-01T08:37:22;28.20;;;4.55;;
49460;SDS011;35355;49.198;-0.368;2022-09-01T08:39:49;17.30;;;3.30;;
49460;SDS011;35355;49.198;-0.368;2022-09-01T08:42:35;13.32;;;2.75;;
49460;SDS011;35355;49.198;-0.368;2022-09-01T08:47:44;16.45;;;3.38;;
49460;SDS011;35355;49.198;-0.368;2022-09-01T08:50:10;15.63;;;3.25;;
49460;SDS011;35355;49.198;-0.368;2022-09-01T08:52:37;9.65;;;3.67;;
49460;SDS011;35355;49.198;-0.368;2022-09-01T08:57:45;19.23;;;3.97;;
49460;SDS011;35355;49.198;-0.368;2022-09-01T09:00:13;13.70;;;3.55;;
49460;SDS011;35355;49.198;-0.368;2022-09-01T09:16:49;13.80;;;4.82;;
49460;SDS011;35355;49.198;-0.368;2022-09-01T09:19:22;9.95;;;3.83;;
49460;SDS011;35355;49.198;-0.368;2022-09-01T09:21:49;8.32;;;3.92;;
49460;SDS011;35355;49.198;-0.368;2022-09-01T09:24:25;11.82;;;4.03;;
49460;SDS011;35355;49.198;-0.368;2022-09-01T09:26:52;13.07;;;3.92;;
49460;SDS011;35355;49.198;-0.368;2022-09-01T09:29:19;10.30;;;3.97;;
49460;SDS011;35355;49.198;-0.368;2022-09-01T09:31:46;8.43;;;3.53;;
49460;SDS011;35355;49.198;-0.368;2022-09-01T09:34:17;9.60;;;3.85;;
49460;SDS011;35355;49.198;-0.368;2022-09-01T09:36:56;11.75;;;3.75;;
49460;SDS011;35355;49.198;-0.368;2022-09-01T09:39:25;10.15;;;4.07;;
49460;SDS011;35355;49.198;-0.368;2022-09-01T09:42:06;17.67;;;3.90;;
49460;SDS011;35355;49.198;-0.368;2022-09-01T09:44:39;14.25;;;4.22;;
49460;SDS011;35355;49.198;-0.368;2022-09-01T09:47:09;14.00;;;4.55;;
49460;SDS011;35355;49.198;-0.368;2022-09-01T09:50:09;10.77;;;4.20;;
49460;SDS011;35355;49.198;-0.368;2022-09-01T09:52:41;8.93;;;4.10;;
49460;SDS011;35355;49.198;-0.368;2022-09-01T09:55:27;8.68;;;4.38;;
49460;SDS011;35355;49.198;-0.368;2022-09-01T09:57:57;11.07;;;4.00;;
49460;SDS011;35355;49.198;-0.368;2022-09-01T10:03:04;10.77;;;5.28;;
49460;SDS011;35355;49.198;-0.368;2022-09-01T10:08:11;11.82;;;5.63;;
49460;SDS011;35355;49.198;-0.368;2022-09-01T10:10:44;18.02;;;4.57;;
49460;SDS011;35355;49.198;-0.368;2022-09-01T10:13:21;8.85;;;3.75;;
49460;SDS011;35355;49.198;-0.368;2022-09-01T10:15:52;11.38;;;3.90;;
49460;SDS011;35355;49.198;-0.368;2022-09-01T10:18:24;17.40;;;4.85;;
49460;SDS011;35355;49.198;-0.368;2022-09-01T10:23:38;14.07;;;4.25;;
49460;SDS011;35355;49.198;-0.368;2022-09-01T10:28:31;18.25;;;3.95;;
49460;SDS011;35355;49.198;-0.368;2022-09-01T10:30:57;23.48;;;4.35;;
49460;SDS011;35355;49.198;-0.368;2022-09-01T10:33:24;9.07;;;4.43;;
49460;SDS011;35355;49.198;-0.368;2022-09-01T10:35:50;12.77;;;4.35;;
49460;SDS011;35355;49.198;-0.368;2022-09-01T10:38:21;14.18;;;4.63;;
49460;SDS011;35355;49.198;-0.368;2022-09-01T10:40:53;9.88;;;3.55;;
49460;SDS011;35355;49.198;-0.368;2022-09-01T10:46:03;14.30;;;5.05;;
49460;SDS011;35355;49.198;-0.368;2022-09-01T10:48:53;18.15;;;4.82;;
49460;SDS011;35355;49.198;-0.368;2022-09-01T10:53:45;14.25;;;4.45;;
49460;SDS011;35355;49.198;-0.368;2022-09-01T11:04:15;10.70;;;3.88;;
49460;SDS011;35355;49.198;-0.368;2022-09-01T11:06:55;18.48;;;3.72;;
49460;SDS011;35355;49.198;-0.368;2022-09-01T11:09:37;9.43;;;4.03;;
49460;SDS011;35355;49.198;-0.368;2022-09-01T11:14:32;18.75;;;3.65;;
49460;SDS011;35355;49.198;-0.368;2022-09-01T11:20:06;13.10;;;4.32;;
49460;SDS011;35355;49.198;-0.368;2022-09-01T11:22:59;15.02;;;4.13;;
49460;SDS011;35355;49.198;-0.368;2022-09-01T11:30:42;11.93;;;3.70;;
49460;SDS011;35355;49.198;-0.368;2022-09-01T11:44:09;11.68;;;3.55;;
49460;SDS011;35355;49.198;-0.368;2022-09-01T11:46:38;13.02;;;3.78;;
49460;SDS011;35355;49.198;-0.368;2022-09-01T11:49:07;10.57;;;3.55;;
49460;SDS011;35355;49.198;-0.368;2022-09-01T11:51:51;12.40;;;4.40;;
49460;SDS011;35355;49.198;-0.368;2022-09-01T11:54:16;9.30;;;2.90;;
49460;SDS011;35355;49.198;-0.368;2022-09-01T11:56:42;13.52;;;4.60;;
49460;SDS011;35355;49.198;-0.368;2022-09-01T11:59:08;13.75;;;4.05;;
49460;SDS011;35355;49.198;-0.368;2022-09-01T12:01:37;6.13;;;3.58;;
49460;SDS011;35355;49.198;-0.368;2022-09-01T12:04:21;8.43;;;3.35;;
49460;SDS011;35355;49.198;-0.368;2022-09-01T12:06:53;12.48;;;3.63;;
49460;SDS011;35355;49.198;-0.368;2022-09-01T12:09:22;15.50;;;4.15;;
49460;SDS011;35355;49.198;-0.368;2022-09-01T12:11:57;11.55;;;4.18;;
49460;SDS011;35355;49.198;-0.368;2022-09-01T12:14:23;10.63;;;3.38;;
49460;SDS011;35355;49.198;-0.368;2022-09-01T12:16:56;25.35;;;4.43;;
49460;SDS011;35355;49.198;-0.368;2022-09-01T12:19:25;13.02;;;3.70;;
49460;SDS011;35355;49.198;-0.368;2022-09-01T12:22:01;18.65;;;4.43;;
49460;SDS011;35355;49.198;-0.368;2022-09-01T12:24:30;23.42;;;4.38;;
49460;SDS011;35355;49.198;-0.368;2022-09-01T12:26:58;15.00;;;4.32;;
49460;SDS011;35355;49.198;-0.368;2022-09-01T12:29:25;13.00;;;5.00;;
49460;SDS011;35355;49.198;-0.368;2022-09-01T12:31:51;12.95;;;4.43;;
49460;SDS011;35355;49.198;-0.368;2022-09-01T12:39:51;17.33;;;3.70;;
49460;SDS011;35355;49.198;-0.368;2022-09-01T12:42:22;10.95;;;4.13;;
49460;SDS011;35355;49.198;-0.368;2022-09-01T12:44:58;10.60;;;4.03;;
49460;SDS011;35355;49.198;-0.368;2022-09-01T12:49:57;12.90;;;4.07;;
49460;SDS011;35355;49.198;-0.368;2022-09-01T12:52:50;13.45;;;3.63;;
49460;SDS011;35355;49.198;-0.368;2022-09-01T12:55:25;12.98;;;3.60;;
49460;SDS011;35355;49.198;-0.368;2022-09-01T12:57:54;8.60;;;3.60;;
49460;SDS011;35355;49.198;-0.368;2022-09-01T13:03:14;18.75;;;4.30;;
49460;SDS011;35355;49.198;-0.368;2022-09-01T13:05:42;17.35;;;5.43;;
49460;SDS011;35355;49.198;-0.368;2022-09-01T13:11:04;11.75;;;4.13;;
49460;SDS011;35355;49.198;-0.368;2022-09-01T13:13:32;10.20;;;3.45;;
49460;SDS011;35355;49.198;-0.368;2022-09-01T13:15:59;12.02;;;5.13;;
49460;SDS011;35355;49.198;-0.368;2022-09-01T13:18:34;12.95;;;4.38;;
49460;SDS011;35355;49.198;-0.368;2022-09-01T13:20:59;8.25;;;4.40;;
49460;SDS011;35355;49.198;-0.368;2022-09-01T13:23:25;7.97;;;4.70;;
49460;SDS011;35355;49.198;-0.368;2022-09-01T13:25:50;11.27;;;4.53;;
49460;SDS011;35355;49.198;-0.368;2022-09-01T13:28:17;12.52;;;4.75;;
49460;SDS011;35355;49.198;-0.368;2022-09-01T13:30:44;7.90;;;4.55;;
49460;SDS011;35355;49.198;-0.368;2022-09-01T13:33:17;8.25;;;3.03;;
49460;SDS011;35355;49.198;-0.368;2022-09-01T13:35:42;13.52;;;4.68;;
49460;SDS011;35355;49.198;-0.368;2022-09-01T13:38:08;10.50;;;4.40;;
49460;SDS011;35355;49.198;-0.368;2022-09-01T13:40:33;6.43;;;3.80;;
49460;SDS011;35355;49.198;-0.368;2022-09-01T13:42:59;7.88;;;4.57;;
49460;SDS011;35355;49.198;-0.368;2022-09-01T13:45:24;8.57;;;3.90;;
49460;SDS011;35355;49.198;-0.368;2022-09-01T13:47:50;12.52;;;3.92;;
49460;SDS011;35355;49.198;-0.368;2022-09-01T13:50:17;10.70;;;5.35;;
49460;SDS011;35355;49.198;-0.368;2022-09-01T14:10:30;14.13;;;4.68;;
49460;SDS011;35355;49.198;-0.368;2022-09-01T14:12:57;15.82;;;4.15;;
49460;SDS011;35355;49.198;-0.368;2022-09-01T14:15:23;13.52;;;4.13;;
49460;SDS011;35355;49.198;-0.368;2022-09-01T14:17:50;8.60;;;3.58;;
49460;SDS011;35355;49.198;-0.368;2022-09-01T14:20:21;11.10;;;3.70;;
49460;SDS011;35355;49.198;-0.368;2022-09-01T14:22:48;12.57;;;3.50;;
49460;SDS011;35355;49.198;-0.368;2022-09-01T14:25:15;10.45;;;4.45;;
49460;SDS011;35355;49.198;-0.368;2022-09-01T14:27:41;7.55;;;3.28;;
49460;SDS011;35355;49.198;-0.368;2022-09-01T14:30:08;6.13;;;3.30;;
49460;SDS011;35355;49.198;-0.368;2022-09-01T14:32:36;17.42;;;3.70;;
49460;SDS011;35355;49.198;-0.368;2022-09-01T14:35:01;6.80;;;3.28;;
49460;SDS011;35355;49.198;-0.368;2022-09-01T14:37:28;9.18;;;3.40;;
49460;SDS011;35355;49.198;-0.368;2022-09-01T14:39:55;13.57;;;4.05;;
49460;SDS011;35355;49.198;-0.368;2022-09-01T14:42:21;11.90;;;4.07;;
49460;SDS011;35355;49.198;-0.368;2022-09-01T14:44:49;7.15;;;3.60;;
49460;SDS011;35355;49.198;-0.368;2022-09-01T14:47:15;17.90;;;4.18;;
49460;SDS011;35355;49.198;-0.368;2022-09-01T14:49:41;8.15;;;3.65;;
49460;SDS011;35355;49.198;-0.368;2022-09-01T14:52:07;20.15;;;4.15;;
49460;SDS011;35355;49.198;-0.368;2022-09-01T14:54:34;6.60;;;3.47;;
49460;SDS011;35355;49.198;-0.368;2022-09-01T14:57:00;7.82;;;3.95;;
49460;SDS011;35355;49.198;-0.368;2022-09-01T14:59:26;9.48;;;4.28;;
49460;SDS011;35355;49.198;-0.368;2022-09-01T15:01:51;11.82;;;3.75;;
49460;SDS011;35355;49.198;-0.368;2022-09-01T15:04:17;7.38;;;3.95;;
49460;SDS011;35355;49.198;-0.368;2022-09-01T15:06:43;12.02;;;4.25;;
49460;SDS011;35355;49.198;-0.368;2022-09-01T15:09:08;10.63;;;3.83;;
49460;SDS011;35355;49.198;-0.368;2022-09-01T15:11:34;10.77;;;3.80;;
49460;SDS011;35355;49.198;-0.368;2022-09-01T15:13:59;11.30;;;4.00;;
49460;SDS011;35355;49.198;-0.368;2022-09-01T15:16:25;12.75;;;3.72;;
49460;SDS011;35355;49.198;-0.368;2022-09-01T15:18:52;8.93;;;3.25;;
49460;SDS011;35355;49.198;-0.368;2022-09-01T15:21:23;16.92;;;4.22;;
49460;SDS011;35355;49.198;-0.368;2022-09-01T15:23:55;7.88;;;3.70;;
49460;SDS011;35355;49.198;-0.368;2022-09-01T15:26:21;7.70;;;4.32;;
49460;SDS011;35355;49.198;-0.368;2022-09-01T15:28:47;9.52;;;3.92;;
49460;SDS011;35355;49.198;-0.368;2022-09-01T15:31:14;11.98;;;4.45;;
49460;SDS011;35355;49.198;-0.368;2022-09-01T15:33:42;9.57;;;4.63;;
49460;SDS011;35355;49.198;-0.368;2022-09-01T15:36:12;12.75;;;4.82;;
49460;SDS011;35355;49.198;-0.368;2022-09-01T15:38:40;12.65;;;5.90;;
49460;SDS011;35355;49.198;-0.368;2022-09-01T15:41:05;8.65;;;5.78;;
49460;SDS011;35355;49.198;-0.368;2022-09-01T15:43:31;13.25;;;5.38;;
49460;SDS011;35355;49.198;-0.368;2022-09-01T15:45:57;12.70;;;6.00;;
49460;SDS011;35355;49.198;-0.368;2022-09-01T15:48:24;13.15;;;5.20;;
49460;SDS011;35355;49.198;-0.368;2022-09-01T15:50:50;14.15;;;7.20;;
49460;SDS011;35355;49.198;-0.368;2022-09-01T15:53:16;17.65;;;6.50;;
49460;SDS011;35355;49.198;-0.368;2022-09-01T15:55:43;17.55;;;6.45;;
49460;SDS011;35355;49.198;-0.368;2022-09-01T15:58:11;12.95;;;6.30;;
49460;SDS011;35355;49.198;-0.368;2022-09-01T16:00:38;24.55;;;6.40;;
49460;SDS011;35355;49.198;-0.368;2022-09-01T16:03:05;23.95;;;7.38;;
49460;SDS011;35355;49.198;-0.368;2022-09-01T16:05:31;15.13;;;7.15;;
49460;SDS011;35355;49.198;-0.368;2022-09-01T16:07:59;15.25;;;7.70;;
49460;SDS011;35355;49.198;-0.368;2022-09-01T16:10:27;17.88;;;7.97;;
49460;SDS011;35355;49.198;-0.368;2022-09-01T16:12:54;11.82;;;7.65;;
49460;SDS011;35355;49.198;-0.368;2022-09-01T16:15:21;14.85;;;8.23;;
49460;SDS011;35355;49.198;-0.368;2022-09-01T16:23:44;20.50;;;8.35;;
49460;SDS011;35355;49.198;-0.368;2022-09-01T16:26:16;19.27;;;8.25;;
49460;SDS011;35355;49.198;-0.368;2022-09-01T16:28:47;13.48;;;7.35;;
49460;SDS011;35355;49.198;-0.368;2022-09-01T16:31:16;13.48;;;8.10;;
49460;SDS011;35355;49.198;-0.368;2022-09-01T16:33:48;16.67;;;9.73;;
49460;SDS011;35355;49.198;-0.368;2022-09-01T16:36:30;23.05;;;10.35;;
49460;SDS011;35355;49.198;-0.368;2022-09-01T16:44:47;18.67;;;10.82;;
49460;SDS011;35355;49.198;-0.368;2022-09-01T17:01:18;26.25;;;11.65;;
49460;SDS011;35355;49.198;-0.368;2022-09-01T17:12:32;18.88;;;11.30;;
49460;SDS011;35355;49.198;-0.368;2022-09-01T17:15:03;17.50;;;9.45;;